sensor_id;sensor_type;location;lat;lon;timestamp;pressure;altitude;pressure_sealevel;temperature;humidity
17764;BME280;22245;52.832;13.816;2023-02-18T00:02:56;101140.13;;;7.42;61.83
17764;BME280;22245;52.832;13.816;2023-02-18T00:06:21;101134.63;;;7.45;62.28
17764;BME280;22245;52.832;13.816;2023-02-18T00:09:45;101125.44;;;7.50;61.53
17764;BME280;22245;52.832;13.816;2023-02-18T00:13:06;101131.16;;;7.44;62.27
17764;BME280;22245;52.832;13.816;2023-02-18T00:16:28;101132.00;;;7.45;61.79
17764;BME280;22245;52.832;13.816;2023-02-18T00:19:51;101135.13;;;7.37;61.64
17764;BME280;22245;52.832;13.816;2023-02-18T00:23:12;101132.59;;;7.35;62.29
17764;BME280;22245;52.832;13.816;2023-02-18T00:26:35;101127.38;;;7.34;62.62
17764;BME280;22245;52.832;13.816;2023-02-18T00:29:57;101131.66;;;7.36;62.29
17764;BME280;22245;52.832;13.816;2023-02-18T00:33:19;101118.81;;;7.30;62.73
17764;BME280;22245;52.832;13.816;2023-02-18T00:36:41;101135.44;;;7.32;62.47
17764;BME280;22245;52.832;13.816;2023-02-18T00:40:05;101127.38;;;7.34;62.75
17764;BME280;22245;52.832;13.816;2023-02-18T00:43:29;101129.41;;;7.30;62.84
17764;BME280;22245;52.832;13.816;2023-02-18T00:46:50;101133.00;;;7.29;62.84
17764;BME280;22245;52.832;13.816;2023-02-18T00:50:12;101141.16;;;7.26;62.55
17764;BME280;22245;52.832;13.816;2023-02-18T00:53:34;101148.03;;;7.29;63.28
17764;BME280;22245;52.832;13.816;2023-02-18T00:56:56;101160.53;;;7.27;63.57
17764;BME280;22245;52.832;13.816;2023-02-18T01:00:21;101155.91;;;7.30;62.97
17764;BME280;22245;52.832;13.816;2023-02-18T01:03:44;101150.50;;;7.32;63.30
17764;BME280;22245;52.832;13.816;2023-02-18T01:07:06;101173.91;;;7.25;63.67
17764;BME280;22245;52.832;13.816;2023-02-18T01:10:30;101158.00;;;7.25;63.75
17764;BME280;22245;52.832;13.816;2023-02-18T01:13:51;101148.44;;;7.22;63.44
17764;BME280;22245;52.832;13.816;2023-02-18T01:17:15;101151.22;;;7.21;63.91
17764;BME280;22245;52.832;13.816;2023-02-18T01:20:38;101158.38;;;7.19;63.81
17764;BME280;22245;52.832;13.816;2023-02-18T01:24:00;101163.50;;;7.22;63.91
17764;BME280;22245;52.832;13.816;2023-02-18T01:27:22;101169.63;;;7.22;63.71
17764;BME280;22245;52.832;13.816;2023-02-18T01:30:44;101162.91;;;7.17;63.89
17764;BME280;22245;52.832;13.816;2023-02-18T01:34:06;101164.00;;;7.00;64.50
17764;BME280;22245;52.832;13.816;2023-02-18T01:37:28;101155.88;;;7.03;64.77
17764;BME280;22245;52.832;13.816;2023-02-18T01:40:51;101155.78;;;7.04;65.04
17764;BME280;22245;52.832;13.816;2023-02-18T01:44:16;101175.53;;;6.99;65.31
17764;BME280;22245;52.832;13.816;2023-02-18T01:47:38;101168.47;;;6.99;65.38
17764;BME280;22245;52.832;13.816;2023-02-18T01:51:07;101172.06;;;6.98;65.19
17764;BME280;22245;52.832;13.816;2023-02-18T01:54:32;101178.19;;;6.99;65.44
17764;BME280;22245;52.832;13.816;2023-02-18T01:57:54;101185.50;;;6.95;65.86
17764;BME280;22245;52.832;13.816;2023-02-18T02:01:17;101176.59;;;6.96;66.41
17764;BME280;22245;52.832;13.816;2023-02-18T02:04:38;101175.72;;;6.95;66.15
17764;BME280;22245;52.832;13.816;2023-02-18T02:08:03;101174.03;;;6.94;66.70
17764;BME280;22245;52.832;13.816;2023-02-18T02:11:52;101168.84;;;6.93;66.40
17764;BME280;22245;52.832;13.816;2023-02-18T02:15:26;101180.66;;;6.87;66.80
17764;BME280;22245;52.832;13.816;2023-02-18T02:18:57;101183.44;;;6.86;67.07
17764;BME280;22245;52.832;13.816;2023-02-18T02:26:41;101180.31;;;6.79;67.21
17764;BME280;22245;52.832;13.816;2023-02-18T02:34:38;101160.66;;;6.69;67.89
17764;BME280;22245;52.832;13.816;2023-02-18T02:38:05;101171.59;;;6.62;67.95
17764;BME280;22245;52.832;13.816;2023-02-18T02:41:39;101166.50;;;6.59;68.45
17764;BME280;22245;52.832;13.816;2023-02-18T02:45:09;101171.78;;;6.59;68.42
17764;BME280;22245;52.832;13.816;2023-02-18T02:48:36;101179.66;;;6.61;68.68
17764;BME280;22245;52.832;13.816;2023-02-18T02:52:09;101188.72;;;6.57;68.26
17764;BME280;22245;52.832;13.816;2023-02-18T02:55:32;101181.63;;;6.57;68.36
17764;BME280;22245;52.832;13.816;2023-02-18T02:58:59;101184.47;;;6.54;68.37
17764;BME280;22245;52.832;13.816;2023-02-18T03:02:33;101186.34;;;6.52;68.63
17764;BME280;22245;52.832;13.816;2023-02-18T03:10:00;101180.59;;;6.45;68.74
17764;BME280;22245;52.832;13.816;2023-02-18T03:13:35;101190.69;;;6.39;69.40
17764;BME280;22245;52.832;13.816;2023-02-18T03:17:05;101192.59;;;6.36;69.76
17764;BME280;22245;52.832;13.816;2023-02-18T03:20:35;101200.72;;;6.33;69.83
17764;BME280;22245;52.832;13.816;2023-02-18T03:24:00;101210.59;;;6.30;70.28
17764;BME280;22245;52.832;13.816;2023-02-18T03:27:29;101197.94;;;6.35;70.10
17764;BME280;22245;52.832;13.816;2023-02-18T03:30:56;101193.72;;;6.32;70.30
17764;BME280;22245;52.832;13.816;2023-02-18T03:34:23;101212.22;;;6.32;70.54
17764;BME280;22245;52.832;13.816;2023-02-18T03:37:49;101214.13;;;6.30;70.52
17764;BME280;22245;52.832;13.816;2023-02-18T03:41:14;101216.00;;;6.28;70.64
17764;BME280;22245;52.832;13.816;2023-02-18T03:44:37;101181.97;;;6.22;70.69
17764;BME280;22245;52.832;13.816;2023-02-18T03:47:59;101192.53;;;6.22;70.98
17764;BME280;22245;52.832;13.816;2023-02-18T03:51:22;101201.16;;;6.26;70.39
17764;BME280;22245;52.832;13.816;2023-02-18T03:54:43;101207.19;;;6.28;70.62
17764;BME280;22245;52.832;13.816;2023-02-18T03:58:05;101198.44;;;6.27;70.45
17764;BME280;22245;52.832;13.816;2023-02-18T04:01:28;101218.72;;;6.27;70.40
17764;BME280;22245;52.832;13.816;2023-02-18T04:04:50;101209.00;;;6.27;70.61
17764;BME280;22245;52.832;13.816;2023-02-18T04:08:12;101214.31;;;6.27;70.59
17764;BME280;22245;52.832;13.816;2023-02-18T04:11:35;101207.19;;;6.28;70.48
17764;BME280;22245;52.832;13.816;2023-02-18T04:14:57;101219.66;;;6.26;70.59
17764;BME280;22245;52.832;13.816;2023-02-18T04:18:19;101212.69;;;6.25;70.25
17764;BME280;22245;52.832;13.816;2023-02-18T04:21:41;101220.63;;;6.25;70.29
17764;BME280;22245;52.832;13.816;2023-02-18T04:25:03;101219.94;;;6.21;70.29
17764;BME280;22245;52.832;13.816;2023-02-18T04:28:25;101229.84;;;6.17;70.38
17764;BME280;22245;52.832;13.816;2023-02-18T04:31:47;101234.03;;;6.21;70.53
17764;BME280;22245;52.832;13.816;2023-02-18T04:35:10;101247.25;;;6.21;70.72
17764;BME280;22245;52.832;13.816;2023-02-18T04:38:31;101249.72;;;6.25;70.39
17764;BME280;22245;52.832;13.816;2023-02-18T04:41:53;101250.66;;;6.23;70.10
17764;BME280;22245;52.832;13.816;2023-02-18T04:45:15;101239.31;;;6.21;70.47
17764;BME280;22245;52.832;13.816;2023-02-18T04:48:37;101249.13;;;6.19;70.36
17764;BME280;22245;52.832;13.816;2023-02-18T04:52:00;101259.78;;;6.18;70.37
17764;BME280;22245;52.832;13.816;2023-02-18T04:55:22;101243.72;;;6.21;70.28
17764;BME280;22245;52.832;13.816;2023-02-18T04:58:44;101246.50;;;6.19;70.48
17764;BME280;22245;52.832;13.816;2023-02-18T05:02:05;101247.13;;;6.23;70.40
17764;BME280;22245;52.832;13.816;2023-02-18T05:05:27;101252.28;;;6.26;69.72
17764;BME280;22245;52.832;13.816;2023-02-18T05:08:50;101244.34;;;6.26;69.85
17764;BME280;22245;52.832;13.816;2023-02-18T05:12:11;101246.19;;;6.24;69.95
17764;BME280;22245;52.832;13.816;2023-02-18T05:15:33;101240.16;;;6.22;69.85
17764;BME280;22245;52.832;13.816;2023-02-18T05:18:55;101239.22;;;6.23;69.97
17764;BME280;22245;52.832;13.816;2023-02-18T05:22:17;101245.38;;;6.23;69.90
17764;BME280;22245;52.832;13.816;2023-02-18T05:25:40;101242.47;;;6.28;69.88
17764;BME280;22245;52.832;13.816;2023-02-18T05:29:03;101255.56;;;6.30;69.75
17764;BME280;22245;52.832;13.816;2023-02-18T05:32:24;101257.47;;;6.28;69.55
17764;BME280;22245;52.832;13.816;2023-02-18T05:35:47;101258.41;;;6.27;69.39
17764;BME280;22245;52.832;13.816;2023-02-18T05:39:08;101258.66;;;6.22;69.63
17764;BME280;22245;52.832;13.816;2023-02-18T05:42:32;101258.41;;;6.27;69.36
17764;BME280;22245;52.832;13.816;2023-02-18T05:45:54;101241.50;;;6.29;68.66
17764;BME280;22245;52.832;13.816;2023-02-18T05:49:15;101260.03;;;6.29;68.90
17764;BME280;22245;52.832;13.816;2023-02-18T05:52:37;101255.56;;;6.30;68.91
17764;BME280;22245;52.832;13.816;2023-02-18T05:55:59;101250.28;;;6.30;68.73
17764;BME280;22245;52.832;13.816;2023-02-18T05:59:22;101245.75;;;6.32;68.78
17764;BME280;22245;52.832;13.816;2023-02-18T06:02:44;101245.69;;;6.33;68.70
17764;BME280;22245;52.832;13.816;2023-02-18T06:06:06;101243.88;;;6.34;68.53
17764;BME280;22245;52.832;13.816;2023-02-18T06:09:28;101241.91;;;6.37;68.25
17764;BME280;22245;52.832;13.816;2023-02-18T06:12:50;101244.44;;;6.39;67.58
17764;BME280;22245;52.832;13.816;2023-02-18T06:16:13;101245.38;;;6.38;67.58
17764;BME280;22245;52.832;13.816;2023-02-18T06:19:35;101241.03;;;6.37;67.58
17764;BME280;22245;52.832;13.816;2023-02-18T06:22:57;101233.03;;;6.39;67.44
17764;BME280;22245;52.832;13.816;2023-02-18T06:26:19;101231.03;;;6.42;67.13
17764;BME280;22245;52.832;13.816;2023-02-18T06:29:41;101226.53;;;6.44;66.82
17764;BME280;22245;52.832;13.816;2023-02-18T06:33:05;101227.44;;;6.43;66.48
17764;BME280;22245;52.832;13.816;2023-02-18T06:36:26;101224.53;;;6.48;66.51
17764;BME280;22245;52.832;13.816;2023-02-18T06:39:48;101205.94;;;6.49;66.11
17764;BME280;22245;52.832;13.816;2023-02-18T06:43:09;101211.97;;;6.51;66.57
17764;BME280;22245;52.832;13.816;2023-02-18T06:46:31;101217.25;;;6.51;65.76
17764;BME280;22245;52.832;13.816;2023-02-18T06:49:54;101205.63;;;6.54;65.40
17764;BME280;22245;52.832;13.816;2023-02-18T06:53:15;101210.72;;;6.57;65.75
17764;BME280;22245;52.832;13.816;2023-02-18T06:56:37;101216.22;;;6.54;65.30
17764;BME280;22245;52.832;13.816;2023-02-18T06:59:58;101221.13;;;6.60;65.29
17764;BME280;22245;52.832;13.816;2023-02-18T07:03:20;101219.34;;;6.61;65.13
17764;BME280;22245;52.832;13.816;2023-02-18T07:06:43;101210.28;;;6.65;64.98
17764;BME280;22245;52.832;13.816;2023-02-18T07:10:06;101219.91;;;6.66;64.86
17764;BME280;22245;52.832;13.816;2023-02-18T07:13:28;101220.66;;;6.68;64.40
17764;BME280;22245;52.832;13.816;2023-02-18T07:16:50;101228.41;;;6.71;64.81
17764;BME280;22245;52.832;13.816;2023-02-18T07:20:12;101222.94;;;6.74;64.57
17764;BME280;22245;52.832;13.816;2023-02-18T07:23:35;101217.63;;;6.74;64.13
17764;BME280;22245;52.832;13.816;2023-02-18T07:26:56;101219.44;;;6.74;64.05
17764;BME280;22245;52.832;13.816;2023-02-18T07:30:19;101219.34;;;6.75;64.03
17764;BME280;22245;52.832;13.816;2023-02-18T07:33:41;101212.91;;;6.79;64.00
17764;BME280;22245;52.832;13.816;2023-02-18T07:37:02;101209.22;;;6.82;63.98
17764;BME280;22245;52.832;13.816;2023-02-18T07:40:29;101208.22;;;6.85;63.94
17764;BME280;22245;52.832;13.816;2023-02-18T07:43:51;101193.81;;;6.89;64.58
17764;BME280;22245;52.832;13.816;2023-02-18T07:47:15;101190.13;;;6.91;64.75
17764;BME280;22245;52.832;13.816;2023-02-18T07:50:39;101187.06;;;6.98;64.72
17764;BME280;22245;52.832;13.816;2023-02-18T07:54:01;101199.28;;;7.00;63.99
17764;BME280;22245;52.832;13.816;2023-02-18T07:57:25;101193.78;;;7.03;63.53
17764;BME280;22245;52.832;13.816;2023-02-18T08:00:47;101195.41;;;7.06;63.89
17764;BME280;22245;52.832;13.816;2023-02-18T08:04:09;101170.50;;;7.08;63.81
17764;BME280;22245;52.832;13.816;2023-02-18T08:07:32;101174.59;;;7.14;64.27
17764;BME280;22245;52.832;13.816;2023-02-18T08:10:54;101174.47;;;7.16;63.78
17764;BME280;22245;52.832;13.816;2023-02-18T08:14:20;101177.03;;;7.17;63.26
17764;BME280;22245;52.832;13.816;2023-02-18T08:17:42;101180.34;;;7.21;63.27
17764;BME280;22245;52.832;13.816;2023-02-18T08:21:04;101171.34;;;7.23;63.17
17764;BME280;22245;52.832;13.816;2023-02-18T08:24:26;101166.69;;;7.27;63.14
17764;BME280;22245;52.832;13.816;2023-02-18T08:27:47;101159.59;;;7.28;63.76
17764;BME280;22245;52.832;13.816;2023-02-18T08:31:16;101148.78;;;7.31;63.42
17764;BME280;22245;52.832;13.816;2023-02-18T08:34:38;101154.75;;;7.34;63.43
17764;BME280;22245;52.832;13.816;2023-02-18T08:38:00;101146.41;;;7.41;63.24
17764;BME280;22245;52.832;13.816;2023-02-18T08:41:22;101148.09;;;7.42;63.74
17764;BME280;22245;52.832;13.816;2023-02-18T08:44:44;101149.78;;;7.43;63.14
17764;BME280;22245;52.832;13.816;2023-02-18T08:48:13;101144.19;;;7.47;63.48
17764;BME280;22245;52.832;13.816;2023-02-18T08:51:39;101141.13;;;7.53;63.69
17764;BME280;22245;52.832;13.816;2023-02-18T08:55:02;101136.59;;;7.56;63.23
17764;BME280;22245;52.832;13.816;2023-02-18T08:58:24;101127.38;;;7.61;63.34
17764;BME280;22245;52.832;13.816;2023-02-18T09:01:45;101128.22;;;7.62;63.50
17764;BME280;22245;52.832;13.816;2023-02-18T09:05:09;101136.09;;;7.63;63.78
17764;BME280;22245;52.832;13.816;2023-02-18T09:08:31;101132.28;;;7.67;63.81
17764;BME280;22245;52.832;13.816;2023-02-18T09:11:53;101128.25;;;7.75;63.64
17764;BME280;22245;52.832;13.816;2023-02-18T09:15:15;101122.94;;;7.75;63.28
17764;BME280;22245;52.832;13.816;2023-02-18T09:18:37;101124.66;;;7.76;63.75
17764;BME280;22245;52.832;13.816;2023-02-18T09:22:00;101108.75;;;7.76;64.20
17764;BME280;22245;52.832;13.816;2023-02-18T09:25:22;101094.31;;;7.80;64.37
17764;BME280;22245;52.832;13.816;2023-02-18T09:28:44;101105.78;;;7.80;64.32
17764;BME280;22245;52.832;13.816;2023-02-18T09:32:07;101097.94;;;7.79;65.42
17764;BME280;22245;52.832;13.816;2023-02-18T09:35:30;101094.09;;;7.83;65.40
17764;BME280;22245;52.832;13.816;2023-02-18T09:38:53;101101.31;;;7.81;66.05
17764;BME280;22245;52.832;13.816;2023-02-18T09:42:17;101082.75;;;7.81;67.46
17764;BME280;22245;52.832;13.816;2023-02-18T09:45:41;101072.91;;;7.83;68.18
17764;BME280;22245;52.832;13.816;2023-02-18T09:49:06;101074.81;;;7.81;69.82
17764;BME280;22245;52.832;13.816;2023-02-18T09:52:35;101069.06;;;7.74;71.58
17764;BME280;22245;52.832;13.816;2023-02-18T09:55:59;101059.75;;;7.68;73.38
17764;BME280;22245;52.832;13.816;2023-02-18T09:59:23;101072.25;;;7.66;73.98
17764;BME280;22245;52.832;13.816;2023-02-18T10:02:53;101074.59;;;7.58;75.28
17764;BME280;22245;52.832;13.816;2023-02-18T10:06:18;101036.06;;;7.52;76.15
17764;BME280;22245;52.832;13.816;2023-02-18T10:09:42;101040.50;;;7.52;77.43
17764;BME280;22245;52.832;13.816;2023-02-18T10:13:10;101042.34;;;7.51;77.57
17764;BME280;22245;52.832;13.816;2023-02-18T10:16:33;101036.28;;;7.49;78.43
17764;BME280;22245;52.832;13.816;2023-02-18T10:19:55;101030.03;;;7.50;79.06
17764;BME280;22245;52.832;13.816;2023-02-18T10:23:19;101008.91;;;7.49;79.20
17764;BME280;22245;52.832;13.816;2023-02-18T10:26:41;100998.44;;;7.47;79.17
17764;BME280;22245;52.832;13.816;2023-02-18T10:30:20;101007.34;;;7.46;79.35
17764;BME280;22245;52.832;13.816;2023-02-18T10:33:45;101004.56;;;7.48;79.36
17764;BME280;22245;52.832;13.816;2023-02-18T10:37:16;100978.50;;;7.42;80.10
17764;BME280;22245;52.832;13.816;2023-02-18T10:40:50;100971.50;;;7.41;80.30
17764;BME280;22245;52.832;13.816;2023-02-18T10:44:19;100951.16;;;7.41;80.53
17764;BME280;22245;52.832;13.816;2023-02-18T10:47:52;100943.31;;;7.39;80.55
17764;BME280;22245;52.832;13.816;2023-02-18T10:51:20;100919.56;;;7.38;80.63
17764;BME280;22245;52.832;13.816;2023-02-18T10:54:52;100910.03;;;7.35;80.69
17764;BME280;22245;52.832;13.816;2023-02-18T10:58:29;100906.53;;;7.35;80.57
17764;BME280;22245;52.832;13.816;2023-02-18T11:01:56;100911.94;;;7.33;80.59
17764;BME280;22245;52.832;13.816;2023-02-18T11:05:23;100910.97;;;7.34;81.37
17764;BME280;22245;52.832;13.816;2023-02-18T11:08:46;100903.13;;;7.33;81.99
17764;BME280;22245;52.832;13.816;2023-02-18T11:12:14;100902.16;;;7.34;82.38
17764;BME280;22245;52.832;13.816;2023-02-18T11:15:37;100906.44;;;7.36;82.41
17764;BME280;22245;52.832;13.816;2023-02-18T11:19:33;100903.78;;;7.36;82.75
17764;BME280;22245;52.832;13.816;2023-02-18T11:23:15;100894.78;;;7.39;82.21
17764;BME280;22245;52.832;13.816;2023-02-18T11:26:38;100878.03;;;7.38;81.89
17764;BME280;22245;52.832;13.816;2023-02-18T11:30:04;100875.28;;;7.40;82.36
17764;BME280;22245;52.832;13.816;2023-02-18T11:33:31;100868.16;;;7.41;82.36
17764;BME280;22245;52.832;13.816;2023-02-18T11:36:55;100869.84;;;7.42;82.29
17764;BME280;22245;52.832;13.816;2023-02-18T11:40:30;100846.00;;;7.42;83.06
17764;BME280;22245;52.832;13.816;2023-02-18T11:43:53;100830.97;;;7.42;82.94
17764;BME280;22245;52.832;13.816;2023-02-18T11:47:23;100819.50;;;7.42;83.65
17764;BME280;22245;52.832;13.816;2023-02-18T11:50:49;100819.50;;;7.42;83.44
17764;BME280;22245;52.832;13.816;2023-02-18T11:54:23;100800.97;;;7.42;83.66
17764;BME280;22245;52.832;13.816;2023-02-18T11:57:50;100792.06;;;7.43;83.54
17764;BME280;22245;52.832;13.816;2023-02-18T12:01:27;100784.75;;;7.46;84.00
17764;BME280;22245;52.832;13.816;2023-02-18T12:04:55;100779.44;;;7.46;83.52
17764;BME280;22245;52.832;13.816;2023-02-18T12:08:23;100779.44;;;7.46;83.87
17764;BME280;22245;52.832;13.816;2023-02-18T12:11:48;100763.53;;;7.46;84.46
17764;BME280;22245;52.832;13.816;2023-02-18T12:15:17;100761.72;;;7.47;84.63
17764;BME280;22245;52.832;13.816;2023-02-18T12:18:53;100753.03;;;7.45;84.98
17764;BME280;22245;52.832;13.816;2023-02-18T12:22:21;100722.94;;;7.46;84.47
17764;BME280;22245;52.832;13.816;2023-02-18T12:25:53;100759.06;;;7.47;84.22
17764;BME280;22245;52.832;13.816;2023-02-18T12:29:33;100687.66;;;7.45;83.93
17764;BME280;22245;52.832;13.816;2023-02-18T12:33:06;100730.78;;;7.47;84.01
17764;BME280;22245;52.832;13.816;2023-02-18T12:36:38;100682.22;;;7.47;84.30
17764;BME280;22245;52.832;13.816;2023-02-18T12:40:20;100703.44;;;7.47;84.60
17764;BME280;22245;52.832;13.816;2023-02-18T12:43:54;100659.25;;;7.47;84.42
17764;BME280;22245;52.832;13.816;2023-02-18T12:47:29;100688.25;;;7.49;84.25
17764;BME280;22245;52.832;13.816;2023-02-18T12:51:04;100666.97;;;7.50;84.94
17764;BME280;22245;52.832;13.816;2023-02-18T12:54:50;100661.53;;;7.52;84.66
17764;BME280;22245;52.832;13.816;2023-02-18T12:58:27;100645.75;;;7.50;84.52
17764;BME280;22245;52.832;13.816;2023-02-18T13:01:57;100607.69;;;7.51;84.79
17764;BME280;22245;52.832;13.816;2023-02-18T13:05:30;100641.06;;;7.54;84.88
17764;BME280;22245;52.832;13.816;2023-02-18T13:09:02;100613.59;;;7.55;85.68
17764;BME280;22245;52.832;13.816;2023-02-18T13:12:32;100616.03;;;7.58;85.09
17764;BME280;22245;52.832;13.816;2023-02-18T13:15:57;100615.09;;;7.59;85.38
17764;BME280;22245;52.832;13.816;2023-02-18T13:19:22;100582.41;;;7.59;84.78
17764;BME280;22245;52.832;13.816;2023-02-18T13:22:46;100609.56;;;7.62;84.98
17764;BME280;22245;52.832;13.816;2023-02-18T13:26:12;100591.72;;;7.64;85.40
17764;BME280;22245;52.832;13.816;2023-02-18T13:29:40;100602.44;;;7.63;85.52
17764;BME280;22245;52.832;13.816;2023-02-18T13:33:13;100617.38;;;7.64;85.62
17764;BME280;22245;52.832;13.816;2023-02-18T13:36:48;100600.88;;;7.60;85.58
17764;BME280;22245;52.832;13.816;2023-02-18T13:40:16;100600.63;;;7.63;85.53
17764;BME280;22245;52.832;13.816;2023-02-18T13:43:40;100586.88;;;7.58;85.52
17764;BME280;22245;52.832;13.816;2023-02-18T13:47:07;100595.03;;;7.55;85.50
17764;BME280;22245;52.832;13.816;2023-02-18T13:50:40;100594.09;;;7.56;85.27
17764;BME280;22245;52.832;13.816;2023-02-18T13:54:05;100579.03;;;7.57;85.76
17764;BME280;22245;52.832;13.816;2023-02-18T13:57:36;100573.41;;;7.61;85.45
17764;BME280;22245;52.832;13.816;2023-02-18T14:01:04;100558.34;;;7.62;85.49
17764;BME280;22245;52.832;13.816;2023-02-18T14:04:51;100556.53;;;7.62;85.18
17764;BME280;22245;52.832;13.816;2023-02-18T14:08:15;100546.91;;;7.61;85.22
17764;BME280;22245;52.832;13.816;2023-02-18T14:11:53;100573.41;;;7.61;85.36
17764;BME280;22245;52.832;13.816;2023-02-18T14:19:26;100565.88;;;7.55;85.41
17764;BME280;22245;52.832;13.816;2023-02-18T14:22:50;100560.72;;;7.53;85.45
17764;BME280;22245;52.832;13.816;2023-02-18T14:26:21;100555.53;;;7.52;85.43
17764;BME280;22245;52.832;13.816;2023-02-18T14:29:44;100574.69;;;7.56;85.56
17764;BME280;22245;52.832;13.816;2023-02-18T14:33:11;100573.84;;;7.55;85.40
17764;BME280;22245;52.832;13.816;2023-02-18T14:36:40;100598.78;;;7.52;85.06
17764;BME280;22245;52.832;13.816;2023-02-18T14:40:32;100618.25;;;7.40;85.67
17764;BME280;22245;52.832;13.816;2023-02-18T14:44:19;100592.72;;;7.39;85.70
17764;BME280;22245;52.832;13.816;2023-02-18T14:47:57;100609.69;;;7.36;85.54
17764;BME280;22245;52.832;13.816;2023-02-18T14:51:25;100606.31;;;7.34;85.62
17764;BME280;22245;52.832;13.816;2023-02-18T14:54:51;100598.84;;;7.39;85.34
17764;BME280;22245;52.832;13.816;2023-02-18T14:58:25;100613.69;;;7.42;85.29
17764;BME280;22245;52.832;13.816;2023-02-18T15:01:48;100620.56;;;7.45;85.31
17764;BME280;22245;52.832;13.816;2023-02-18T15:05:13;100637.19;;;7.47;84.96
17764;BME280;22245;52.832;13.816;2023-02-18T15:08:37;100646.09;;;7.46;84.44
17764;BME280;22245;52.832;13.816;2023-02-18T15:12:03;100632.25;;;7.42;84.51
17764;BME280;22245;52.832;13.816;2023-02-18T15:15:26;100650.56;;;7.45;85.07
17764;BME280;22245;52.832;13.816;2023-02-18T15:18:51;100646.66;;;7.38;85.25
17764;BME280;22245;52.832;13.816;2023-02-18T15:22:17;100671.13;;;7.42;85.34
17764;BME280;22245;52.832;13.816;2023-02-18T15:25:39;100659.28;;;7.34;85.23
17764;BME280;22245;52.832;13.816;2023-02-18T15:29:04;100661.63;;;7.39;85.00
17764;BME280;22245;52.832;13.816;2023-02-18T15:32:27;100674.63;;;7.42;84.88
17764;BME280;22245;52.832;13.816;2023-02-18T15:35:49;100672.50;;;7.47;84.79
17764;BME280;22245;52.832;13.816;2023-02-18T15:39:10;100673.91;;;7.40;84.10
17764;BME280;22245;52.832;13.816;2023-02-18T15:42:38;100679.06;;;7.42;84.38
17764;BME280;22245;52.832;13.816;2023-02-18T15:46:12;100700.16;;;7.43;84.35
17764;BME280;22245;52.832;13.816;2023-02-18T15:49:37;100703.88;;;7.41;83.90
17764;BME280;22245;52.832;13.816;2023-02-18T15:53:04;100722.41;;;7.41;84.26
17764;BME280;22245;52.832;13.816;2023-02-18T15:56:30;100721.38;;;7.43;84.55
17764;BME280;22245;52.832;13.816;2023-02-18T15:59:54;100736.84;;;7.36;84.91
17764;BME280;22245;52.832;13.816;2023-02-18T16:03:22;100740.25;;;7.38;84.86
17764;BME280;22245;52.832;13.816;2023-02-18T16:06:46;100754.13;;;7.42;85.05
17764;BME280;22245;52.832;13.816;2023-02-18T16:10:16;100770.13;;;7.41;84.57
17764;BME280;22245;52.832;13.816;2023-02-18T16:13:45;100771.81;;;7.42;84.13
17764;BME280;22245;52.832;13.816;2023-02-18T16:17:12;100787.72;;;7.29;84.71
17764;BME280;22245;52.832;13.816;2023-02-18T16:20:37;100788.38;;;7.19;85.26
17764;BME280;22245;52.832;13.816;2023-02-18T16:24:02;100791.25;;;7.16;85.60
17764;BME280;22245;52.832;13.816;2023-02-18T16:27:30;100800.91;;;7.17;85.40
17764;BME280;22245;52.832;13.816;2023-02-18T16:30:53;100812.75;;;7.24;85.11
17764;BME280;22245;52.832;13.816;2023-02-18T16:34:15;100825.91;;;7.26;85.47
17764;BME280;22245;52.832;13.816;2023-02-18T16:37:41;100822.09;;;7.04;85.99
17764;BME280;22245;52.832;13.816;2023-02-18T16:41:05;100821.47;;;6.88;85.27
17764;BME280;22245;52.832;13.816;2023-02-18T16:44:26;100837.56;;;6.85;85.02
17764;BME280;22245;52.832;13.816;2023-02-18T16:47:48;100863.25;;;6.70;84.97
17764;BME280;22245;52.832;13.816;2023-02-18T16:51:13;100877.25;;;6.72;84.29
17764;BME280;22245;52.832;13.816;2023-02-18T16:54:37;100887.38;;;6.65;83.87
17764;BME280;22245;52.832;13.816;2023-02-18T16:57:58;100879.09;;;6.57;83.76
17764;BME280;22245;52.832;13.816;2023-02-18T17:01:23;100890.22;;;6.62;83.18
17764;BME280;22245;52.832;13.816;2023-02-18T17:04:45;100895.59;;;6.60;82.53
17764;BME280;22245;52.832;13.816;2023-02-18T17:08:15;100898.38;;;6.59;82.51
17764;BME280;22245;52.832;13.816;2023-02-18T17:11:39;100912.56;;;6.58;82.12
17764;BME280;22245;52.832;13.816;2023-02-18T17:15:01;100913.44;;;6.44;82.74
17764;BME280;22245;52.832;13.816;2023-02-18T17:18:24;100938.22;;;6.43;82.72
17764;BME280;22245;52.832;13.816;2023-02-18T17:21:45;100943.31;;;6.46;82.83
17764;BME280;22245;52.832;13.816;2023-02-18T17:25:16;100954.44;;;6.51;82.97
17764;BME280;22245;52.832;13.816;2023-02-18T17:28:40;100951.50;;;6.56;82.51
17764;BME280;22245;52.832;13.816;2023-02-18T17:32:04;100965.47;;;6.58;82.55
17764;BME280;22245;52.832;13.816;2023-02-18T17:35:27;100975.13;;;6.59;82.22
17764;BME280;22245;52.832;13.816;2023-02-18T17:38:49;100978.59;;;6.59;82.11
17764;BME280;22245;52.832;13.816;2023-02-18T17:42:11;100982.84;;;6.62;82.05
17764;BME280;22245;52.832;13.816;2023-02-18T17:45:39;100989.94;;;6.61;82.18
17764;BME280;22245;52.832;13.816;2023-02-18T17:49:02;100999.03;;;6.57;83.06
17764;BME280;22245;52.832;13.816;2023-02-18T17:52:29;101004.97;;;6.61;82.98
17764;BME280;22245;52.832;13.816;2023-02-18T17:55:51;100995.22;;;6.61;82.60
17764;BME280;22245;52.832;13.816;2023-02-18T17:59:13;101009.41;;;6.60;82.22
17764;BME280;22245;52.832;13.816;2023-02-18T18:02:36;101006.00;;;6.58;82.67
17764;BME280;22245;52.832;13.816;2023-02-18T18:05:58;101013.13;;;6.58;82.25
17764;BME280;22245;52.832;13.816;2023-02-18T18:09:21;101016.50;;;6.60;82.36
17764;BME280;22245;52.832;13.816;2023-02-18T18:12:43;101025.47;;;6.57;82.80